Time;durP1;ratioP1;P1;durP2;ratioP2;P2;SDS_P1;SDS_P2;PMS_P1;PMS_P2;Temp;Humidity;BMP_temperature;BMP_pressure;BME280_temperature;BME280_humidity;BME280_pressure;Samples;Min_cycle;Max_cycle;Signal;HPM_P1;HPM_P2
2022/01/07 00:00:39;;;;;;;2.22;1.00;;;23.20;35.10;;;;;;5021524;28;20028;-46
2022/01/07 00:03:06;;;;;;;2.53;1.10;;;23.20;35.10;;;;;;5022468;28;20107;-47
2022/01/07 00:05:32;;;;;;;2.05;0.90;;;23.20;35.10;;;;;;5023415;28;20025;-48
2022/01/07 00:07:58;;;;;;;6.88;2.38;;;23.20;35.10;;;;;;5021507;28;20021;-48
2022/01/07 00:10:24;;;;;;;3.88;1.83;;;23.20;39.20;;;;;;5020385;28;20079;-49
2022/01/07 00:12:51;;;;;;;6.38;2.25;;;23.20;39.40;;;;;;5024973;28;20022;-48
2022/01/07 00:15:17;;;;;;;5.97;1.88;;;23.20;39.00;;;;;;5027160;28;20017;-47
2022/01/07 00:17:44;;;;;;;6.93;2.55;;;23.20;38.10;;;;;;5024644;28;20078;-48
2022/01/07 00:20:11;;;;;;;7.63;2.50;;;23.20;40.10;;;;;;5025129;28;20115;-47
2022/01/07 00:22:41;;;;;;;6.20;2.47;;;23.20;43.00;;;;;;5027278;28;20172;-48
2022/01/07 00:25:10;;;;;;;9.63;2.55;;;23.20;41.10;;;;;;5014852;28;20164;-47
2022/01/07 00:27:36;;;;;;;6.10;2.05;;;23.20;40.40;;;;;;5018279;28;20064;-46
2022/01/07 00:30:04;;;;;;;5.68;2.03;;;23.20;40.10;;;;;;5025491;28;20662;-47
2022/01/07 00:32:30;;;;;;;4.43;1.80;;;23.20;40.30;;;;;;5021712;28;20104;-48
2022/01/07 00:34:55;;;;;;;5.25;1.95;;;23.20;39.20;;;;;;5027260;28;20112;-48
2022/01/07 00:37:21;;;;;;;3.13;1.55;;;23.10;38.80;;;;;;5012690;28;20037;-48
2022/01/07 00:39:48;;;;;;;4.20;1.75;;;23.10;38.70;;;;;;5027551;28;20037;-48
2022/01/07 00:42:14;;;;;;;4.35;2.03;;;23.10;38.40;;;;;;5027658;28;20022;-48
2022/01/07 00:44:39;;;;;;;3.90;1.85;;;23.10;37.90;;;;;;5027515;28;20024;-49
2022/01/07 00:47:06;;;;;;;3.67;1.63;;;23.10;37.60;;;;;;5017979;28;20739;-46
2022/01/07 00:49:32;;;;;;;3.40;1.80;;;23.10;37.10;;;;;;5027724;28;20064;-47
2022/01/07 00:51:59;;;;;;;3.65;1.95;;;23.10;36.70;;;;;;5012934;28;20068;-47
2022/01/07 00:54:25;;;;;;;3.15;1.73;;;23.10;36.40;;;;;;5011780;28;20038;-48
2022/01/07 00:56:51;;;;;;;4.45;2.10;;;23.00;36.10;;;;;;5014443;28;20052;-47
2022/01/07 00:59:17;;;;;;;4.05;2.28;;;23.10;36.20;;;;;;5018856;28;20117;-47
2022/01/07 01:01:43;;;;;;;4.60;1.73;;;23.00;35.70;;;;;;5019658;28;20033;-48
2022/01/07 01:04:08;;;;;;;2.92;1.50;;;23.00;35.70;;;;;;5026055;28;20033;-49
2022/01/07 01:06:34;;;;;;;3.22;1.83;;;23.00;35.50;;;;;;5012498;28;20696;-48
2022/01/07 01:09:00;;;;;;;3.30;1.80;;;23.00;35.30;;;;;;5016575;28;20044;-48
2022/01/07 01:11:26;;;;;;;3.15;1.38;;;23.00;35.30;;;;;;5007874;28;20384;-47
2022/01/07 01:13:51;;;;;;;3.78;1.90;;;23.10;35.20;;;;;;5012117;28;20101;-48
2022/01/07 01:16:17;;;;;;;4.60;1.85;;;23.00;34.80;;;;;;5027120;28;20490;-48
2022/01/07 01:18:43;;;;;;;4.18;2.00;;;23.00;34.60;;;;;;5027204;28;20092;-48
2022/01/07 01:21:09;;;;;;;4.50;1.73;;;23.00;34.70;;;;;;5018107;28;20045;-48
2022/01/07 01:23:34;;;;;;;4.32;1.88;;;23.00;34.40;;;;;;5006124;28;20066;-48
2022/01/07 01:26:00;;;;;;;3.67;1.60;;;22.90;34.30;;;;;;5007589;28;20068;-48
2022/01/07 01:28:26;;;;;;;3.28;1.58;;;22.90;34.30;;;;;;5008133;28;20057;-48
2022/01/07 01:30:51;;;;;;;3.58;1.92;;;22.90;34.50;;;;;;5009208;28;20113;-47
2022/01/07 01:33:18;;;;;;;3.00;1.50;;;22.90;34.60;;;;;;5022437;28;20036;-48
2022/01/07 01:35:44;;;;;;;3.67;1.90;;;22.90;34.50;;;;;;5023590;28;20040;-48
2022/01/07 01:38:10;;;;;;;2.85;1.50;;;22.90;34.60;;;;;;5017862;28;20037;-48
2022/01/07 01:40:36;;;;;;;3.05;1.70;;;22.90;34.70;;;;;;5026314;28;20101;-47
2022/01/07 01:43:02;;;;;;;4.22;1.75;;;22.90;34.60;;;;;;5026315;28;20108;-48
2022/01/07 01:45:28;;;;;;;3.05;1.52;;;22.80;34.70;;;;;;5026019;28;20030;-48
2022/01/07 01:47:55;;;;;;;3.28;1.73;;;22.80;34.60;;;;;;5026011;28;20124;-47
2022/01/07 01:50:22;;;;;;;2.65;1.23;;;22.80;34.70;;;;;;5030807;28;20035;-48
2022/01/07 01:52:53;;;;;;;3.05;1.60;;;22.80;34.80;;;;;;5006609;28;20721;-48
2022/01/07 01:55:19;;;;;;;2.67;1.35;;;22.80;34.80;;;;;;5006577;28;20128;-47
2022/01/07 01:57:46;;;;;;;2.92;1.52;;;22.80;34.90;;;;;;5012781;28;20040;-48
2022/01/07 02:00:12;;;;;;;2.90;1.70;;;22.80;35.00;;;;;;5026172;28;20029;-48
2022/01/07 02:02:39;;;;;;;2.70;1.50;;;22.80;35.00;;;;;;5019616;28;20100;-49
2022/01/07 02:05:05;;;;;;;3.03;1.60;;;22.80;35.10;;;;;;5006636;28;20022;-48
2022/01/07 02:07:35;;;;;;;2.95;1.35;;;22.80;35.10;;;;;;5006242;28;20046;-48
2022/01/07 02:10:05;;;;;;;2.72;1.55;;;22.80;35.10;;;;;;5006582;28;20049;-47
2022/01/07 02:12:31;;;;;;;2.63;1.40;;;22.80;35.20;;;;;;5009255;28;20041;-47
2022/01/07 02:14:57;;;;;;;2.75;1.40;;;22.70;35.20;;;;;;5007133;28;20401;-47
2022/01/07 02:17:25;;;;;;;2.38;1.17;;;22.70;35.20;;;;;;5024848;28;20064;-49
2022/01/07 02:19:51;;;;;;;2.90;1.58;;;22.70;35.20;;;;;;5015907;28;20092;-47
2022/01/07 02:22:17;;;;;;;2.53;1.33;;;22.70;35.30;;;;;;5006074;28;20084;-48
2022/01/07 02:24:48;;;;;;;2.38;1.20;;;22.70;35.40;;;;;;5006207;28;20053;-48
2022/01/07 02:27:15;;;;;;;3.08;1.50;;;22.70;35.50;;;;;;5005837;28;20037;-49
2022/01/07 02:29:45;;;;;;;3.03;1.52;;;22.70;35.60;;;;;;5006110;28;20022;-48
2022/01/07 02:32:12;;;;;;;2.40;1.27;;;22.70;35.50;;;;;;5005670;28;20014;-48
2022/01/07 02:34:37;;;;;;;2.05;1.10;;;22.70;35.50;;;;;;5004997;28;20553;-48
2022/01/07 02:37:04;;;;;;;2.78;1.40;;;22.70;35.40;;;;;;5005527;28;20029;-47
2022/01/07 02:39:30;;;;;;;2.80;1.30;;;22.60;35.40;;;;;;5005169;28;20573;-47
2022/01/07 02:41:56;;;;;;;2.28;1.40;;;22.60;35.40;;;;;;5005357;28;20109;-47
2022/01/07 02:44:22;;;;;;;2.58;1.25;;;22.60;35.40;;;;;;5005091;28;20042;-47
2022/01/07 02:46:48;;;;;;;2.15;1.20;;;22.60;35.40;;;;;;5005468;28;20026;-48
2022/01/07 02:49:16;;;;;;;2.28;1.25;;;22.60;35.40;;;;;;5005480;28;20025;-47
2022/01/07 02:51:42;;;;;;;1.85;1.00;;;22.60;35.40;;;;;;5020648;28;20113;-46
2022/01/07 02:54:09;;;;;;;2.13;1.10;;;22.60;35.40;;;;;;5005784;28;20026;-47
2022/01/07 02:56:36;;;;;;;2.20;1.00;;;22.60;35.40;;;;;;5005730;28;20026;-47
2022/01/07 02:59:02;;;;;;;2.95;1.20;;;22.60;35.40;;;;;;5005908;28;20109;-46
2022/01/07 03:01:28;;;;;;;2.28;1.00;;;22.60;35.40;;;;;;5005756;28;20461;-47
2022/01/07 03:03:54;;;;;;;2.05;1.10;;;22.60;35.50;;;;;;5005182;28;20026;-48
2022/01/07 03:06:23;;;;;;;2.08;1.15;;;22.60;35.40;;;;;;5005833;28;20367;-49
2022/01/07 03:08:50;;;;;;;2.47;1.10;;;22.60;35.40;;;;;;5004715;28;20038;-47
2022/01/07 03:11:17;;;;;;;2.60;1.20;;;22.50;35.40;;;;;;5003623;28;20026;-49
2022/01/07 03:13:43;;;;;;;2.85;1.08;;;22.50;35.40;;;;;;5003075;28;20034;-48
2022/01/07 03:16:08;;;;;;;2.05;1.17;;;22.50;35.50;;;;;;5004569;28;20038;-48
2022/01/07 03:18:34;;;;;;;2.13;0.95;;;22.50;35.50;;;;;;5004411;28;20032;-46
2022/01/07 03:21:00;;;;;;;2.60;1.30;;;22.50;35.50;;;;;;5004444;28;20293;-45
2022/01/07 03:23:27;;;;;;;1.85;1.00;;;22.50;35.50;;;;;;5004522;28;20026;-45
2022/01/07 03:25:53;;;;;;;1.70;0.93;;;22.50;35.50;;;;;;5004443;28;20097;-45
2022/01/07 03:28:20;;;;;;;1.92;0.90;;;22.50;35.50;;;;;;5004583;28;20041;-45
2022/01/07 03:30:46;;;;;;;1.80;0.85;;;22.50;35.60;;;;;;5007391;28;20036;-45
2022/01/07 03:33:13;;;;;;;2.85;1.20;;;22.50;35.60;;;;;;5015365;28;20699;-46
2022/01/07 03:35:38;;;;;;;2.03;1.00;;;22.50;35.60;;;;;;5011866;28;20022;-45
2022/01/07 03:38:05;;;;;;;2.00;0.95;;;22.50;35.50;;;;;;5023720;28;20026;-45
2022/01/07 03:40:31;;;;;;;1.55;0.85;;;22.40;35.50;;;;;;5024443;28;20029;-45
2022/01/07 03:42:56;;;;;;;2.35;1.10;;;22.40;35.50;;;;;;5022584;28;20017;-45
2022/01/07 03:45:23;;;;;;;2.17;0.95;;;22.50;35.60;;;;;;5023876;28;20029;-44
2022/01/07 03:47:50;;;;;;;2.30;1.15;;;22.40;35.50;;;;;;5015820;28;20046;-46
2022/01/07 03:50:19;;;;;;;1.85;1.05;;;22.40;35.60;;;;;;5020663;28;20100;-45
2022/01/07 03:52:45;;;;;;;2.05;1.02;;;22.40;35.50;;;;;;5014629;28;20439;-45
2022/01/07 03:55:14;;;;;;;2.03;0.98;;;22.40;35.60;;;;;;5019577;28;20060;-45
2022/01/07 03:57:40;;;;;;;1.92;0.93;;;22.40;35.50;;;;;;5018021;28;20029;-46
2022/01/07 04:00:08;;;;;;;2.58;1.08;;;22.40;35.50;;;;;;5015826;28;20091;-45
2022/01/07 04:02:34;;;;;;;1.83;1.00;;;22.40;35.50;;;;;;5007461;28;20112;-45
2022/01/07 04:05:00;;;;;;;1.92;0.90;;;22.40;35.60;;;;;;5015576;28;20109;-45
2022/01/07 04:07:25;;;;;;;1.90;1.00;;;22.30;35.50;;;;;;5015714;28;20045;-45
2022/01/07 04:09:51;;;;;;;2.10;0.80;;;22.30;35.60;;;;;;5018830;28;20026;-44
2022/01/07 04:12:17;;;;;;;2.35;1.00;;;22.30;35.60;;;;;;5011507;28;20033;-46
2022/01/07 04:14:42;;;;;;;2.28;0.98;;;22.30;35.60;;;;;;5023779;28;20072;-45
2022/01/07 04:17:08;;;;;;;1.88;0.98;;;22.30;35.70;;;;;;5015099;28;20112;-45
2022/01/07 04:19:34;;;;;;;1.48;0.90;;;22.30;35.70;;;;;;5023417;28;20021;-44
2022/01/07 04:22:00;;;;;;;1.92;0.90;;;22.30;35.60;;;;;;5011859;28;20041;-46
2022/01/07 04:24:26;;;;;;;2.45;1.00;;;22.30;35.60;;;;;;5003327;28;20033;-45
2022/01/07 04:26:52;;;;;;;2.28;1.05;;;22.30;35.60;;;;;;5004126;28;20034;-45
2022/01/07 04:29:18;;;;;;;1.98;0.88;;;22.30;35.60;;;;;;5004755;28;20034;-46
2022/01/07 04:31:43;;;;;;;1.70;1.00;;;22.30;35.60;;;;;;5004354;28;20029;-45
2022/01/07 04:34:09;;;;;;;1.83;0.70;;;22.30;35.60;;;;;;5004477;28;20030;-47
2022/01/07 04:36:36;;;;;;;1.77;0.93;;;22.30;35.60;;;;;;5003979;28;20558;-47
2022/01/07 04:39:03;;;;;;;2.60;1.30;;;22.20;35.50;;;;;;5004685;28;20087;-48
2022/01/07 04:41:28;;;;;;;2.33;1.00;;;22.20;35.60;;;;;;5003119;28;20034;-47
2022/01/07 04:43:54;;;;;;;1.95;0.80;;;22.20;35.60;;;;;;5003973;28;20349;-47
2022/01/07 04:46:20;;;;;;;2.00;0.98;;;22.20;35.60;;;;;;5003640;28;20030;-47
2022/01/07 04:48:45;;;;;;;1.92;0.90;;;22.20;35.60;;;;;;5017747;28;20018;-47
2022/01/07 04:51:11;;;;;;;1.58;0.80;;;22.20;35.60;;;;;;5025704;28;20025;-47
2022/01/07 04:53:37;;;;;;;1.70;0.90;;;22.20;35.60;;;;;;5015835;28;20099;-48
2022/01/07 04:56:03;;;;;;;1.63;0.82;;;22.20;35.60;;;;;;5024085;28;20033;-47
2022/01/07 04:58:28;;;;;;;2.40;0.90;;;22.20;35.60;;;;;;5009317;28;20037;-47
2022/01/07 05:00:54;;;;;;;1.77;0.90;;;22.20;35.60;;;;;;5025203;28;20029;-47
2022/01/07 05:03:20;;;;;;;1.85;1.10;;;22.20;35.60;;;;;;5027491;28;20028;-47
2022/01/07 05:05:51;;;;;;;1.67;0.88;;;22.20;35.60;;;;;;5025725;28;20025;-48
2022/01/07 05:08:18;;;;;;;1.00;0.60;;;22.10;35.60;;;;;;5007887;28;20032;-48
2022/01/07 05:10:44;;;;;;;1.90;0.80;;;22.10;35.60;;;;;;5007170;28;20113;-49
2022/01/07 05:13:10;;;;;;;1.67;0.75;;;22.10;35.60;;;;;;5007316;28;20104;-48
2022/01/07 05:15:35;;;;;;;1.70;0.80;;;22.10;35.70;;;;;;5013411;28;20763;-48
2022/01/07 05:18:01;;;;;;;1.45;0.68;;;22.10;35.80;;;;;;5026300;28;20044;-48
2022/01/07 05:20:27;;;;;;;2.15;1.00;;;22.10;35.80;;;;;;5026801;28;20025;-48
2022/01/07 05:22:53;;;;;;;1.30;0.60;;;22.10;35.80;;;;;;5007989;28;20071;-47
2022/01/07 05:25:20;;;;;;;2.42;1.27;;;22.10;35.90;;;;;;5025067;28;20022;-47
2022/01/07 05:27:46;;;;;;;1.33;0.70;;;22.20;35.90;;;;;;5017100;28;20061;-47
2022/01/07 05:30:13;;;;;;;1.42;0.75;;;22.10;36.00;;;;;;5027106;28;20115;-48
2022/01/07 05:32:39;;;;;;;2.67;1.20;;;22.20;36.00;;;;;;5020953;28;20025;-47
2022/01/07 05:35:06;;;;;;;2.28;1.00;;;22.20;36.00;;;;;;5019529;28;20544;-48
2022/01/07 05:37:32;;;;;;;2.05;0.85;;;22.20;36.10;;;;;;5025311;28;20120;-48
2022/01/07 05:39:58;;;;;;;1.90;0.98;;;22.30;36.20;;;;;;5026467;28;20469;-48
2022/01/07 05:42:24;;;;;;;1.75;0.88;;;22.30;36.20;;;;;;5026725;28;20073;-48
2022/01/07 05:44:50;;;;;;;2.10;0.85;;;22.40;36.20;;;;;;5027175;28;20111;-47
2022/01/07 05:47:16;;;;;;;1.70;0.70;;;22.40;36.10;;;;;;5027667;28;20065;-47
2022/01/07 05:49:42;;;;;;;1.98;1.00;;;22.50;36.90;;;;;;5029513;28;20029;-49
2022/01/07 05:52:07;;;;;;;1.25;0.55;;;22.50;36.10;;;;;;5004739;28;20060;-48
2022/01/07 05:54:33;;;;;;;1.95;0.70;;;22.60;36.00;;;;;;5006313;28;20029;-48
2022/01/07 05:56:59;;;;;;;2.58;0.93;;;22.70;36.10;;;;;;5006547;28;20104;-48
2022/01/07 05:59:25;;;;;;;1.60;0.90;;;22.70;36.00;;;;;;5004528;28;20376;-49
2022/01/07 06:01:51;;;;;;;1.83;0.82;;;22.80;35.80;;;;;;5005777;28;20037;-47
2022/01/07 06:04:17;;;;;;;2.05;0.80;;;22.80;35.70;;;;;;5023581;28;20025;-49
2022/01/07 06:06:43;;;;;;;2.35;0.80;;;22.90;36.30;;;;;;5017270;28;20041;-47
2022/01/07 06:09:08;;;;;;;1.85;0.75;;;23.00;35.60;;;;;;5005862;28;20022;-47
2022/01/07 06:11:34;;;;;;;1.92;0.80;;;23.00;35.50;;;;;;5006470;28;20061;-49
2022/01/07 06:14:00;;;;;;;1.50;0.75;;;23.10;35.50;;;;;;5006533;28;20062;-48
2022/01/07 06:16:25;;;;;;;1.38;0.70;;;23.20;35.40;;;;;;5006585;28;20564;-48
2022/01/07 06:19:00;;;;;;;2.08;1.00;;;23.20;35.30;;;;;;5006113;28;20030;-48
2022/01/07 06:21:26;;;;;;;1.95;0.77;;;23.30;35.20;;;;;;5006335;28;20056;-48
2022/01/07 06:23:53;;;;;;;2.53;1.00;;;23.30;35.10;;;;;;4987126;28;20022;-48
2022/01/07 06:26:19;;;;;;;2.00;0.80;;;23.40;35.00;;;;;;5005374;28;20060;-49
2022/01/07 06:28:44;;;;;;;1.88;0.98;;;23.40;35.00;;;;;;5004584;28;20049;-48
2022/01/07 06:31:10;;;;;;;1.65;0.70;;;23.40;35.00;;;;;;5006209;28;20022;-47
2022/01/07 06:33:36;;;;;;;3.45;1.20;;;23.50;35.00;;;;;;5004907;28;20034;-48
2022/01/07 06:36:02;;;;;;;3.22;1.00;;;23.50;35.10;;;;;;5005540;28;20442;-48
2022/01/07 06:38:28;;;;;;;2.30;0.80;;;23.50;34.90;;;;;;5004744;28;20069;-48
2022/01/07 06:40:54;;;;;;;1.58;0.80;;;23.50;34.90;;;;;;5005515;28;20140;-47
2022/01/07 06:43:19;;;;;;;3.42;1.05;;;23.50;34.80;;;;;;5004815;28;20032;-48
2022/01/07 06:45:45;;;;;;;1.83;0.80;;;23.60;34.70;;;;;;5005827;28;20080;-48
2022/01/07 06:48:11;;;;;;;2.58;1.05;;;23.60;34.70;;;;;;5004756;28;20076;-48
2022/01/07 06:50:36;;;;;;;3.65;1.20;;;23.60;34.60;;;;;;5025897;28;20093;-49
2022/01/07 06:53:02;;;;;;;2.65;0.90;;;23.70;34.70;;;;;;5014011;28;20072;-47
2022/01/07 06:55:28;;;;;;;2.05;0.80;;;23.80;34.60;;;;;;5025037;28;20032;-48
2022/01/07 06:57:54;;;;;;;2.50;1.10;;;23.80;34.50;;;;;;5024770;28;20029;-49
2022/01/07 07:00:19;;;;;;;1.90;0.80;;;23.80;34.50;;;;;;5024519;28;20497;-48
2022/01/07 07:02:45;;;;;;;2.17;1.05;;;23.90;34.50;;;;;;5017937;28;20562;-48
2022/01/07 07:05:11;;;;;;;1.58;0.85;;;23.90;34.50;;;;;;5005061;28;20093;-48
2022/01/07 07:07:36;;;;;;;2.17;1.00;;;24.00;34.40;;;;;;5004822;28;20034;-49
2022/01/07 07:10:03;;;;;;;3.92;1.00;;;24.00;34.40;;;;;;5005148;28;20199;-48
2022/01/07 07:12:30;;;;;;;2.30;1.10;;;24.10;34.30;;;;;;5004360;28;20033;-49
2022/01/07 07:14:56;;;;;;;3.05;1.10;;;24.20;34.30;;;;;;5005121;28;20548;-48
2022/01/07 07:17:23;;;;;;;3.47;1.50;;;24.20;34.20;;;;;;5013277;28;20033;-49
2022/01/07 07:19:49;;;;;;;2.75;0.95;;;24.30;34.20;;;;;;5021707;28;20025;-47
2022/01/07 07:22:15;;;;;;;3.15;0.98;;;24.30;34.10;;;;;;5012573;28;20475;-49
2022/01/07 07:24:40;;;;;;;2.22;0.98;;;24.30;34.10;;;;;;5003869;28;20469;-48
2022/01/07 07:27:06;;;;;;;3.03;1.30;;;24.40;34.00;;;;;;5003611;28;20797;-47
2022/01/07 07:29:32;;;;;;;2.67;1.10;;;24.40;34.00;;;;;;5003739;28;20699;-47
2022/01/07 07:31:59;;;;;;;2.63;1.23;;;24.40;33.80;;;;;;4998906;28;20091;-49
2022/01/07 07:34:44;;;;;;;2.78;1.15;;;24.50;34.00;;;;;;4996771;28;20034;-48
2022/01/07 07:37:13;;;;;;;2.22;1.00;;;24.60;33.80;;;;;;5018105;28;20056;-48
2022/01/07 07:39:39;;;;;;;2.90;1.10;;;24.60;33.80;;;;;;5022253;28;20029;-47
2022/01/07 07:42:05;;;;;;;3.35;1.60;;;24.70;33.70;;;;;;5021289;28;20120;-48
2022/01/07 07:44:31;;;;;;;3.22;1.17;;;24.70;34.20;;;;;;5022412;28;20044;-49
2022/01/07 07:46:57;;;;;;;8.18;2.20;;;24.70;33.90;;;;;;5023355;28;20021;-48
2022/01/07 07:49:23;;;;;;;4.20;2.10;;;24.70;34.20;;;;;;5021190;28;20056;-47
2022/01/07 07:51:51;;;;;;;4.00;1.88;;;24.80;34.30;;;;;;5022750;28;20025;-48
2022/01/07 07:54:17;;;;;;;4.35;2.10;;;24.80;34.60;;;;;;5013615;28;20064;-49
2022/01/07 07:56:43;;;;;;;7.32;1.88;;;24.80;34.50;;;;;;5021999;28;20478;-48
2022/01/07 07:59:09;;;;;;;5.72;2.53;;;24.90;34.50;;;;;;5021601;28;20520;-48
2022/01/07 08:01:36;;;;;;;6.25;2.63;;;24.90;34.90;;;;;;5024376;28;20057;-48
2022/01/07 08:04:03;;;;;;;5.53;2.90;;;25.00;34.20;;;;;;5023378;28;20021;-48
2022/01/07 08:06:29;;;;;;;5.32;2.60;;;25.00;34.10;;;;;;5019572;28;20109;-49
2022/01/07 08:08:55;;;;;;;5.22;2.03;;;25.00;34.10;;;;;;5004227;28;20026;-48
2022/01/07 08:11:23;;;;;;;5.75;2.28;;;25.00;34.00;;;;;;5002240;28;20026;-47
2022/01/07 08:16:33;;;;;;;4.85;2.08;;;25.10;33.80;;;;;;5013186;28;20605;-47
2022/01/07 08:19:00;;;;;;;4.10;2.20;;;25.10;33.80;;;;;;5005692;28;20113;-47
2022/01/07 08:21:27;;;;;;;4.25;2.00;;;25.10;33.80;;;;;;5008987;28;20681;-47
2022/01/07 08:23:54;;;;;;;5.47;2.33;;;25.10;33.80;;;;;;5020018;28;20628;-48
2022/01/07 08:26:20;;;;;;;4.05;2.20;;;25.10;33.70;;;;;;5014304;28;20729;-48
2022/01/07 08:28:50;;;;;;;4.55;1.95;;;25.20;33.70;;;;;;5020633;28;20076;-47
2022/01/07 08:36:45;;;;;;;5.57;2.47;;;25.20;33.60;;;;;;5021787;28;20022;-47
2022/01/07 08:39:11;;;;;;;5.18;2.65;;;25.20;33.60;;;;;;5012745;28;20526;-48
2022/01/07 08:41:38;;;;;;;4.22;2.03;;;25.30;33.60;;;;;;5021974;28;20035;-50
2022/01/07 08:44:04;;;;;;;4.35;2.20;;;25.30;33.50;;;;;;5015185;28;20040;-48
2022/01/07 08:46:30;;;;;;;4.97;2.53;;;25.30;33.50;;;;;;5007087;28;20029;-48
2022/01/07 08:48:57;;;;;;;4.38;2.25;;;25.30;33.50;;;;;;5007088;28;20065;-49
2022/01/07 08:51:23;;;;;;;4.13;2.38;;;25.30;33.70;;;;;;5036049;28;20047;-47
2022/01/07 08:53:49;;;;;;;4.40;2.40;;;25.30;33.60;;;;;;5017480;28;20031;-48
2022/01/07 08:56:16;;;;;;;7.53;2.58;;;25.30;33.60;;;;;;5026365;28;20029;-47
2022/01/07 08:58:43;;;;;;;5.03;2.00;;;25.30;33.60;;;;;;5024379;28;20026;-48
2022/01/07 09:01:08;;;;;;;4.13;2.33;;;25.30;33.60;;;;;;5026280;28;20036;-47
2022/01/07 09:03:34;;;;;;;4.10;2.40;;;25.40;33.50;;;;;;5025016;28;20022;-46
2022/01/07 09:06:00;;;;;;;4.32;2.10;;;25.40;33.50;;;;;;5025762;28;20025;-47
2022/01/07 09:08:26;;;;;;;3.70;1.60;;;25.40;33.70;;;;;;5016078;28;20180;-48
2022/01/07 09:10:52;;;;;;;3.17;1.70;;;25.40;33.70;;;;;;5023872;28;20034;-47
2022/01/07 09:13:20;;;;;;;4.22;1.60;;;25.40;33.90;;;;;;5025178;28;20099;-47
2022/01/07 09:15:46;;;;;;;3.13;2.03;;;25.40;33.90;;;;;;5025391;28;20025;-48
2022/01/07 09:18:14;;;;;;;4.50;2.53;;;25.50;33.70;;;;;;5024304;28;20044;-47
2022/01/07 09:20:43;;;;;;;5.22;2.78;;;25.40;33.60;;;;;;5025291;28;20025;-48
2022/01/07 09:23:10;;;;;;;4.38;2.80;;;25.40;33.50;;;;;;5023417;28;20104;-47
2022/01/07 09:25:36;;;;;;;5.00;3.08;;;25.40;33.50;;;;;;5022293;28;20036;-48
2022/01/07 09:28:04;;;;;;;6.13;3.33;;;25.40;33.60;;;;;;5024367;28;20037;-48
2022/01/07 09:30:31;;;;;;;7.22;3.03;;;25.50;33.30;;;;;;5025847;28;20486;-49
2022/01/07 09:32:56;;;;;;;7.05;3.42;;;25.40;33.30;;;;;;5025181;28;20764;-47
2022/01/07 09:35:24;;;;;;;5.22;2.75;;;25.50;33.30;;;;;;5025983;28;20049;-48
2022/01/07 09:37:50;;;;;;;4.32;2.55;;;25.40;33.20;;;;;;5012639;28;20033;-47
2022/01/07 09:40:17;;;;;;;4.90;2.65;;;25.40;33.20;;;;;;5011107;28;20022;-48
2022/01/07 09:43:03;;;;;;;5.90;3.13;;;25.40;33.10;;;;;;5019168;28;20065;-49
2022/01/07 09:45:32;;;;;;;3.60;2.22;;;25.50;33.10;;;;;;5022001;28;20108;-47
2022/01/07 09:47:58;;;;;;;3.78;2.20;;;25.50;33.00;;;;;;5024886;28;20112;-49
2022/01/07 09:50:26;;;;;;;3.78;1.90;;;25.50;33.60;;;;;;5025526;28;20517;-48
2022/01/07 09:52:52;;;;;;;5.75;2.58;;;25.50;32.80;;;;;;5022710;28;20297;-48
2022/01/07 09:55:19;;;;;;;4.93;2.60;;;25.50;33.00;;;;;;5025414;28;20484;-46
2022/01/07 09:57:44;;;;;;;3.83;2.30;;;25.50;33.10;;;;;;5023373;28;20510;-47
2022/01/07 10:00:11;;;;;;;5.35;3.20;;;25.40;31.90;;;;;;5013963;28;20018;-48
2022/01/07 10:02:37;;;;;;;6.47;2.45;;;25.40;31.60;;;;;;5003335;28;20038;-49
2022/01/07 10:05:17;;;;;;;4.03;2.35;;;25.40;32.40;;;;;;5002123;28;20018;-47
2022/01/07 10:07:44;;;;;;;3.72;2.20;;;25.40;31.90;;;;;;5002482;28;20034;-49
2022/01/07 10:10:14;;;;;;;4.30;2.25;;;25.40;31.70;;;;;;5003393;28;20656;-49
2022/01/07 10:13:03;;;;;;;5.28;2.15;;;25.40;32.00;;;;;;5003857;28;20026;-50
2022/01/07 10:15:49;;;;;;;3.35;1.80;;;25.40;32.20;;;;;;5004091;28;20697;-47
2022/01/07 10:18:16;;;;;;;6.18;1.92;;;25.40;32.30;;;;;;5004100;28;20045;-48
2022/01/07 10:20:46;;;;;;;4.35;2.10;;;25.40;32.20;;;;;;5004968;28;20026;-47
2022/01/07 10:23:24;;;;;;;3.83;2.22;;;25.40;32.30;;;;;;5004321;28;20989;-48
2022/01/07 10:25:56;;;;;;;3.28;2.08;;;25.40;32.30;;;;;;5004574;28;20056;-49
2022/01/07 10:28:32;;;;;;;5.20;2.45;;;25.40;32.30;;;;;;5004194;28;20034;-49
2022/01/07 10:31:02;;;;;;;3.50;1.90;;;25.40;32.40;;;;;;5004852;28;20021;-51
2022/01/07 10:33:31;;;;;;;5.30;2.38;;;25.40;32.30;;;;;;5004297;28;20087;-47
2022/01/07 10:36:07;;;;;;;4.75;2.22;;;25.40;32.20;;;;;;5004485;28;20053;-48
2022/01/07 10:38:45;;;;;;;4.00;2.30;;;25.30;32.30;;;;;;5003879;28;20034;-48
2022/01/07 10:41:13;;;;;;;4.38;2.40;;;25.30;32.50;;;;;;5005502;28;20431;-50
2022/01/07 10:43:39;;;;;;;3.65;2.30;;;25.30;32.50;;;;;;5023748;28;20730;-47
2022/01/07 10:46:13;;;;;;;4.93;2.50;;;25.30;32.50;;;;;;5024615;28;20041;-47
2022/01/07 10:48:51;;;;;;;6.97;3.13;;;25.30;32.40;;;;;;5024392;28;20104;-47
2022/01/07 10:51:26;;;;;;;5.35;2.45;;;25.30;32.50;;;;;;5038651;28;20047;-49
2022/01/07 10:53:59;;;;;;;4.78;2.63;;;25.30;32.30;;;;;;5004926;28;20046;-47
2022/01/07 10:56:37;;;;;;;4.57;2.40;;;25.30;32.50;;;;;;5003175;28;20101;-48
2022/01/07 10:59:22;;;;;;;3.47;1.80;;;25.30;32.50;;;;;;5004922;28;20049;-48
2022/01/07 11:01:49;;;;;;;3.90;2.13;;;25.30;32.60;;;;;;5016081;28;20037;-47
2022/01/07 11:04:26;;;;;;;3.65;1.92;;;25.30;32.60;;;;;;5003874;28;20030;-48
2022/01/07 11:06:53;;;;;;;5.38;2.20;;;25.30;32.60;;;;;;5008911;28;20094;-47
2022/01/07 11:09:20;;;;;;;3.65;2.17;;;25.30;32.50;;;;;;5005388;28;20038;-49
2022/01/07 11:11:54;;;;;;;4.40;2.10;;;25.30;32.60;;;;;;5014376;28;20033;-48
2022/01/07 11:14:28;;;;;;;3.83;1.92;;;25.30;32.60;;;;;;5004040;28;20105;-48
2022/01/07 11:16:58;;;;;;;3.80;2.00;;;25.30;32.60;;;;;;5019059;28;20086;-49
2022/01/07 11:19:28;;;;;;;3.83;2.10;;;25.20;32.70;;;;;;5012278;28;20036;-49
2022/01/07 11:21:55;;;;;;;4.18;2.00;;;25.30;32.70;;;;;;5004227;28;20026;-48
2022/01/07 11:24:43;;;;;;;3.80;1.67;;;25.30;32.70;;;;;;5004017;28;20434;-48
2022/01/07 11:27:54;;;;;;;4.20;1.98;;;25.30;32.70;;;;;;5004206;28;20110;-49
2022/01/07 11:30:28;;;;;;;3.60;2.03;;;25.30;32.70;;;;;;4998520;28;20088;-47
2022/01/07 11:32:55;;;;;;;3.67;1.65;;;25.30;32.60;;;;;;5003026;28;20037;-49
2022/01/07 11:35:21;;;;;;;4.53;1.65;;;25.30;32.90;;;;;;5004058;28;20038;-48
2022/01/07 11:37:50;;;;;;;4.28;1.73;;;25.30;32.70;;;;;;5004034;28;20383;-46
2022/01/07 11:40:44;;;;;;;3.70;1.65;;;25.30;32.70;;;;;;5003843;28;20045;-47
2022/01/07 11:43:31;;;;;;;3.65;1.73;;;25.30;32.80;;;;;;5003466;28;20113;-47
2022/01/07 11:45:57;;;;;;;3.83;1.77;;;25.30;32.80;;;;;;5003310;28;20041;-48
2022/01/07 11:48:27;;;;;;;3.90;1.95;;;25.30;32.70;;;;;;5003133;28;20025;-47
2022/01/07 11:50:55;;;;;;;3.25;1.77;;;25.30;32.90;;;;;;5028105;28;20033;-48
2022/01/07 11:53:22;;;;;;;4.18;1.70;;;25.30;32.90;;;;;;5011423;28;20069;-49
2022/01/07 11:55:49;;;;;;;4.45;1.70;;;25.20;32.80;;;;;;5002575;28;20060;-48
2022/01/07 11:58:16;;;;;;;3.95;2.00;;;25.20;32.80;;;;;;4996808;28;20974;-48
2022/01/07 12:00:53;;;;;;;4.82;2.35;;;25.20;33.00;;;;;;5007844;28;20502;-49
2022/01/07 12:03:39;;;;;;;3.90;2.03;;;25.20;33.20;;;;;;5001570;28;20647;-47
2022/01/07 12:06:26;;;;;;;4.63;1.80;;;25.20;33.20;;;;;;5006316;28;20033;-48
2022/01/07 12:09:10;;;;;;;4.78;2.10;;;25.20;33.00;;;;;;5016171;28;20446;-49
2022/01/07 12:11:43;;;;;;;5.90;1.88;;;25.20;33.10;;;;;;5020352;28;20033;-48
2022/01/07 12:14:18;;;;;;;5.15;1.98;;;25.20;33.10;;;;;;5020760;28;20041;-49
2022/01/07 12:16:47;;;;;;;3.90;1.80;;;25.20;33.20;;;;;;5021178;28;20072;-48
2022/01/07 12:19:19;;;;;;;2.97;1.60;;;25.20;33.20;;;;;;5020704;28;20033;-48
2022/01/07 12:21:57;;;;;;;3.60;1.90;;;25.20;33.30;;;;;;5019678;28;20392;-49
2022/01/07 12:24:25;;;;;;;3.70;1.65;;;25.20;33.30;;;;;;5000303;28;20034;-47
2022/01/07 12:27:07;;;;;;;4.88;2.10;;;25.20;33.30;;;;;;5002852;28;20490;-49
2022/01/07 12:29:39;;;;;;;3.25;1.38;;;25.20;33.30;;;;;;5002900;28;20131;-47
2022/01/07 12:32:07;;;;;;;4.10;1.58;;;25.20;33.30;;;;;;5003430;28;20042;-48
2022/01/07 12:34:37;;;;;;;3.53;1.50;;;25.20;33.30;;;;;;5002221;28;20061;-48
2022/01/07 12:37:11;;;;;;;3.85;1.90;;;25.20;33.30;;;;;;5002538;28;20221;-49
2022/01/07 12:39:40;;;;;;;2.00;1.10;;;25.20;33.30;;;;;;5002454;28;20032;-48
2022/01/07 12:42:07;;;;;;;3.08;1.58;;;25.20;33.30;;;;;;5002130;28;20076;-47
2022/01/07 12:44:44;;;;;;;3.20;1.65;;;25.20;33.40;;;;;;5018981;28;20486;-48
2022/01/07 12:47:14;;;;;;;3.13;1.67;;;25.20;33.30;;;;;;5022311;28;20431;-48
2022/01/07 12:49:53;;;;;;;3.00;1.67;;;25.20;33.40;;;;;;5026114;28;20029;-48
2022/01/07 12:52:30;;;;;;;3.10;1.60;;;25.20;33.40;;;;;;5031356;28;20057;-50
2022/01/07 12:55:03;;;;;;;2.50;1.20;;;25.20;33.50;;;;;;5003702;28;20029;-47
2022/01/07 12:57:29;;;;;;;;;;;25.20;33.60;;;;;;5004206;28;20034;-48
2022/01/07 13:00:22;;;;;;;3.58;1.27;;;25.20;33.50;;;;;;5003629;28;19967;-48